Time;durP1;ratioP1;P1;durP2;ratioP2;P2;SDS_P1;SDS_P2;PMS_P1;PMS_P2;Temp;Humidity;BMP_temperature;BMP_pressure;BME280_temperature;BME280_humidity;BME280_pressure;Samples;Min_cycle;Max_cycle;Signal;HPM_P1;HPM_P2
2021/12/19 00:04:02;;;;;;;12.98;7.28;;;;;;;5.78;100.00;100478.23;713678;1205;115247;-73
2021/12/19 00:19:05;;;;;;;14.15;6.40;;;;;;;5.82;100.00;100446.70;713945;1200;114096;-72
2021/12/19 00:34:07;;;;;;;14.40;6.08;;;;;;;5.89;100.00;100423.70;713687;1205;113372;-72
2021/12/19 00:49:11;;;;;;;12.28;5.50;;;;;;;5.83;100.00;100385.89;713667;1177;114400;-72
2021/12/19 01:04:17;;;;;;;12.05;5.65;;;;;;;5.80;100.00;100338.39;714566;1206;114207;-72
2021/12/19 01:19:19;;;;;;;11.17;6.83;;;;;;;5.80;100.00;100318.39;713876;1205;114184;-70
2021/12/19 01:34:21;;;;;;;12.35;6.95;;;;;;;5.92;100.00;100271.64;714113;1203;115036;-71
2021/12/19 01:49:24;;;;;;;8.70;5.50;;;;;;;6.00;100.00;100261.55;714350;1200;114563;-71
2021/12/19 02:04:30;;;;;;;11.40;6.03;;;;;;;6.12;100.00;100215.59;713744;1176;114457;-71
2021/12/19 02:19:33;;;;;;;12.40;6.33;;;;;;;6.28;100.00;100165.83;713561;1203;114865;-71
2021/12/19 02:34:42;;;;;;;8.80;5.83;;;;;;;6.42;100.00;100146.61;713973;1200;114212;-71
2021/12/19 02:49:44;;;;;;;10.18;6.20;;;;;;;6.60;100.00;100127.01;713686;1175;113696;-74
2021/12/19 03:04:53;;;;;;;16.83;7.93;;;;;;;6.74;100.00;100086.04;713890;1199;114021;-73
2021/12/19 03:19:58;;;;;;;13.70;6.63;;;;;;;6.93;100.00;100090.72;713713;1199;114548;-73
2021/12/19 03:35:00;;;;;;;10.48;5.83;;;;;;;6.98;100.00;100057.27;714223;1177;113981;-73
2021/12/19 03:50:08;;;;;;;12.35;6.93;;;;;;;7.18;100.00;100045.31;714585;1202;113970;-74
2021/12/19 04:05:10;;;;;;;13.78;5.48;;;;;;;7.32;100.00;100024.20;713983;1199;115417;-74
2021/12/19 04:20:15;;;;;;;9.60;4.85;;;;;;;7.47;100.00;100037.81;713813;1200;113277;-73
2021/12/19 04:35:17;;;;;;;11.68;4.35;;;;;;;7.59;100.00;100040.41;713771;1200;115343;-74
2021/12/19 05:20:59;;;;;;;12.67;6.37;;;;;;;7.37;100.00;99971.63;714397;1200;114663;-74
2021/12/19 05:51:06;;;;;;;11.63;5.27;;;;;;;7.38;100.00;99977.66;714371;1203;115351;-74
2021/12/19 06:06:08;;;;;;;7.67;4.40;;;;;;;7.57;100.00;99990.91;713862;1190;113730;-74
2021/12/19 06:21:11;;;;;;;15.20;4.47;;;;;;;7.57;100.00;99997.92;714141;1203;115014;-74
2021/12/19 06:36:13;;;;;;;10.13;3.60;;;;;;;7.52;100.00;99971.35;714337;1200;114996;-74
2021/12/19 06:51:15;;;;;;;17.37;4.43;;;;;;;7.29;100.00;99968.80;714158;1199;113901;-75
2021/12/19 07:06:17;;;;;;;8.10;4.23;;;;;;;7.10;100.00;99959.82;714242;1200;113835;-75
2021/12/19 07:21:19;;;;;;;9.68;4.23;;;;;;;7.06;100.00;99962.78;714910;1200;115381;-75
2021/12/19 07:36:24;;;;;;;17.80;5.83;;;;;;;7.07;100.00;99957.44;714550;1200;113729;-74
2021/12/19 07:51:26;;;;;;;14.70;6.53;;;;;;;7.13;100.00;99962.17;714532;1203;113976;-71
2021/12/19 08:06:29;;;;;;;147.08;56.53;;;;;;;7.33;100.00;99968.42;714913;1200;114036;-78
2021/12/19 08:21:31;;;;;;;64.33;28.15;;;;;;;7.28;100.00;99947.08;714820;1202;114561;-74
2021/12/19 08:36:33;;;;;;;91.73;35.75;;;;;;;7.49;100.00;99947.14;715165;1182;114747;-76
2021/12/19 08:51:39;;;;;;;352.13;131.55;;;;;;;7.67;100.00;99933.57;714288;1174;114024;-74
2021/12/19 09:06:42;;;;;;;68.85;31.80;;;;;;;7.68;100.00;99929.16;714092;1200;115253;-74
2021/12/19 09:21:44;;;;;;;45.98;17.13;;;;;;;7.88;100.00;99922.30;714892;1200;114027;-74
2021/12/19 09:36:46;;;;;;;49.78;22.23;;;;;;;7.93;100.00;99901.86;714510;1200;115421;-74
2021/12/19 09:51:50;;;;;;;57.08;22.40;;;;;;;8.07;100.00;99898.92;714621;1200;113969;-74
2021/12/19 10:07:07;;;;;;;37.40;17.05;;;;;;;8.03;100.00;99883.66;714575;1177;114360;-73
2021/12/19 10:22:24;;;;;;;46.83;20.57;;;;;;;8.07;100.00;99871.98;714547;1200;115769;-73
2021/12/19 10:37:34;;;;;;;19.18;8.33;;;;;;;8.09;100.00;99859.60;714639;1206;114048;-73
2021/12/19 10:52:38;;;;;;;29.13;12.60;;;;;;;8.17;100.00;99841.52;714680;1203;114099;-73
2021/12/19 11:08:00;;;;;;;12.85;5.35;;;;;;;8.11;100.00;99836.80;715436;1200;114544;-75
2021/12/19 11:23:03;;;;;;;28.68;13.15;;;;;;;8.02;100.00;99820.11;714680;1200;114348;-74
2021/12/19 11:38:09;;;;;;;19.30;8.97;;;;;;;7.87;100.00;99793.52;714661;1176;114421;-74
2021/12/19 11:53:11;;;;;;;25.80;12.43;;;;;;;7.95;100.00;99782.42;714918;1178;113937;-75
2021/12/19 12:08:16;;;;;;;17.60;9.08;;;;;;;7.95;100.00;99756.30;714538;1199;114125;-73
2021/12/19 12:23:26;;;;;;;15.77;6.70;;;;;;;7.70;100.00;99708.77;714911;1189;113827;-74
2021/12/19 12:38:30;;;;;;;18.50;8.10;;;;;;;7.72;100.00;99680.76;714889;1200;113965;-74
2021/12/19 12:53:38;;;;;;;18.68;8.58;;;;;;;7.81;99.93;99694.79;714678;1179;113738;-75
2021/12/19 13:08:44;;;;;;;21.45;8.73;;;;;;;7.73;100.00;99669.33;721494;1177;113792;-73
2021/12/19 13:23:46;;;;;;;18.00;8.37;;;;;;;7.49;100.00;99695.75;732155;1199;113721;-75
2021/12/19 13:38:49;;;;;;;14.23;7.40;;;;;;;7.30;100.00;99717.36;714683;1200;114948;-74
2021/12/19 13:53:58;;;;;;;17.68;6.03;;;;;;;6.78;95.43;99738.95;714214;1178;113676;-74
2021/12/19 14:09:23;;;;;;;23.87;10.93;;;;;;;6.50;92.96;99735.11;714512;1177;113697;-74
2021/12/19 14:24:31;;;;;;;11.55;5.25;;;;;;;6.19;90.86;99742.76;714359;1177;113704;-74
2021/12/19 14:39:33;;;;;;;9.73;4.57;;;;;;;6.10;89.81;99749.50;716399;1206;114565;-73
2021/12/19 14:54:36;;;;;;;23.53;9.80;;;;;;;5.91;88.63;99760.50;715896;1202;114756;-73
2021/12/19 15:09:38;;;;;;;22.38;9.60;;;;;;;5.81;88.58;99765.56;715047;1199;115320;-72
2021/12/19 15:24:41;;;;;;;70.68;29.53;;;;;;;5.39;89.59;99775.66;714845;1203;114916;-73
2021/12/19 15:39:44;;;;;;;78.95;48.98;;;;;;;5.27;90.32;99774.80;715644;1199;113787;-74
2021/12/19 15:54:46;;;;;;;41.60;16.70;;;;;;;5.34;91.08;99793.38;714864;1202;115625;-73
2021/12/19 16:09:48;;;;;;;13.70;7.20;;;;;;;5.24;90.58;99821.85;714889;1200;115454;-72
2021/12/19 16:24:50;;;;;;;21.70;6.75;;;;;;;5.04;91.61;99831.11;715146;1200;113784;-73
2021/12/19 16:39:55;;;;;;;35.93;15.45;;;;;;;4.74;93.62;99839.30;714886;1199;113602;-72
2021/12/19 16:54:58;;;;;;;26.98;11.48;;;;;;;4.51;95.41;99846.95;714770;1178;113721;-73
2021/12/19 17:10:01;;;;;;;62.78;23.73;;;;;;;4.56;95.63;99834.47;715755;1175;115338;-74
2021/12/19 17:25:06;;;;;;;43.85;18.40;;;;;;;4.61;96.20;99867.94;715361;1192;114801;-75
2021/12/19 17:40:52;;;;;;;57.67;27.00;;;;;;;4.56;96.43;99839.66;714734;1203;113702;-73
2021/12/19 17:55:35;;;;;;;97.47;48.97;;;;;;;4.12;100.00;99839.20;715033;1177;113897;-74
2021/12/19 18:10:38;;;;;;;51.90;26.13;;;;;;;4.25;99.35;99847.00;714516;1205;117203;-74
2021/12/19 18:25:44;;;;;;;20.35;11.78;;;;;;;4.33;97.51;99843.88;714379;1205;113930;-74
2021/12/19 18:40:49;;;;;;;14.65;6.30;;;;;;;4.40;97.37;99850.30;714510;1177;113688;-74
2021/12/19 18:55:59;;;;;;;10.60;4.88;;;;;;;4.52;96.41;99858.19;714555;1199;113685;-74
2021/12/19 19:11:02;;;;;;;19.95;8.35;;;;;;;4.53;95.47;99870.22;714709;1174;113478;-74
2021/12/19 19:26:05;;;;;;;12.33;4.67;;;;;;;4.37;94.38;99871.30;715029;1200;113549;-73
2021/12/19 19:56:14;;;;;;;21.08;7.23;;;;;;;4.32;91.86;99869.00;714902;1199;114897;-76
2021/12/19 20:11:38;;;;;;;19.58;9.38;;;;;;;4.25;90.16;99882.50;714807;1178;113742;-74
2021/12/19 20:26:42;;;;;;;15.78;9.38;;;;;;;4.22;89.38;99888.73;725070;1200;114049;-75
2021/12/19 20:41:47;;;;;;;12.98;5.38;;;;;;;4.14;89.97;99894.47;715182;1203;113877;-75
2021/12/19 20:56:51;;;;;;;28.65;8.53;;;;;;;4.19;87.85;99882.94;715466;1202;115201;-75
2021/12/19 21:11:58;;;;;;;38.13;15.33;;;;;;;4.23;87.21;99898.19;714353;1175;114512;-75
2021/12/19 21:27:22;;;;;;;51.60;19.70;;;;;;;4.26;86.95;99881.58;714412;1200;113810;-75
2021/12/19 21:42:26;;;;;;;56.20;22.08;;;;;;;4.04;88.50;99879.59;714503;1205;114228;-74
2021/12/19 21:57:29;;;;;;;84.15;27.23;;;;;;;4.03;88.56;99873.58;714309;1201;114589;-73
2021/12/19 22:12:55;;;;;;;62.70;23.70;;;;;;;3.71;87.99;99873.12;714418;1202;113935;-73
2021/12/19 22:27:58;;;;;;;42.30;16.08;;;;;;;3.49;87.60;99875.36;714074;1177;113874;-73
2021/12/19 22:43:01;;;;;;;169.73;49.80;;;;;;;3.33;88.75;99874.70;714259;1199;113843;-73
2021/12/19 22:58:05;;;;;;;71.65;28.65;;;;;;;3.41;88.74;99861.25;716132;1203;115816;-76
2021/12/19 23:13:18;;;;;;;20.33;8.60;;;;;;;3.39;89.53;99876.06;714763;1200;114074;-75
2021/12/19 23:28:21;;;;;;;22.40;9.43;;;;;;;3.57;89.31;99866.27;714259;1177;113587;-75
2021/12/19 23:58:44;;;;;;;13.70;5.50;;;;;;;3.67;91.15;99841.38;713699;1202;113635;-75
